Terminal Aerodrome Forecast
Issued by NWS Upton, NY

Home | Current Version | Previous Version | Text Only | Print | Product List | Glossary On
Versions: 1 2 3 4 5 6 7 8 9 10 11 12 13 14 15 16 17 18 19 20 21 22 23 24 25 26 27 28 29 30 31 32 33 34
559
FTUS41 KOKX 230834 AAA
TAFBDR
TAF AMD
KBDR 230834Z 2309/2406 03008KT P6SM OVC012
     FM231400 09011KT P6SM OVC010
     FM231900 11012KT 6SM -RA OVC008
     FM232200 14009KT 3SM -RA BR OVC006
     FM240300 23004KT 2SM -RA BR OVC005 WS020/27040KT
      AMD NOT SKED=

USA.gov is the U.S. government's official web portal to all federal, state and local government web resources and services.